sensor_id;sensor_type;location;lat;lon;timestamp;temperature;humidity
25949;DHT22;13961;51.178;4.448;2023-04-06T00:01:39;9.50;99.90
25949;DHT22;13961;51.178;4.448;2023-04-06T00:04:05;9.50;99.90
25949;DHT22;13961;51.178;4.448;2023-04-06T00:06:32;9.50;99.90
25949;DHT22;13961;51.178;4.448;2023-04-06T00:08:58;9.30;99.90
25949;DHT22;13961;51.178;4.448;2023-04-06T00:11:24;9.30;99.90
25949;DHT22;13961;51.178;4.448;2023-04-06T00:13:50;9.30;99.90
25949;DHT22;13961;51.178;4.448;2023-04-06T00:16:16;9.20;99.90
25949;DHT22;13961;51.178;4.448;2023-04-06T00:18:42;9.20;99.90
25949;DHT22;13961;51.178;4.448;2023-04-06T00:21:08;9.20;99.90
25949;DHT22;13961;51.178;4.448;2023-04-06T00:23:33;9.10;99.90
25949;DHT22;13961;51.178;4.448;2023-04-06T00:25:59;9.20;99.90
25949;DHT22;13961;51.178;4.448;2023-04-06T00:28:25;9.30;99.90
25949;DHT22;13961;51.178;4.448;2023-04-06T00:30:54;9.40;99.90
25949;DHT22;13961;51.178;4.448;2023-04-06T00:33:24;9.20;99.90
25949;DHT22;13961;51.178;4.448;2023-04-06T00:35:50;9.20;99.90
25949;DHT22;13961;51.178;4.448;2023-04-06T00:38:16;9.30;99.90
25949;DHT22;13961;51.178;4.448;2023-04-06T00:40:43;9.30;99.90
25949;DHT22;13961;51.178;4.448;2023-04-06T00:43:12;9.30;99.90
25949;DHT22;13961;51.178;4.448;2023-04-06T00:45:38;9.30;99.90
25949;DHT22;13961;51.178;4.448;2023-04-06T00:48:05;9.30;99.90
25949;DHT22;13961;51.178;4.448;2023-04-06T00:50:31;9.30;99.90
25949;DHT22;13961;51.178;4.448;2023-04-06T00:52:58;9.10;99.90
25949;DHT22;13961;51.178;4.448;2023-04-06T00:55:24;9.00;99.90
25949;DHT22;13961;51.178;4.448;2023-04-06T00:57:50;9.00;99.90
25949;DHT22;13961;51.178;4.448;2023-04-06T01:00:16;9.00;99.90
25949;DHT22;13961;51.178;4.448;2023-04-06T01:02:42;9.10;99.90
25949;DHT22;13961;51.178;4.448;2023-04-06T01:05:10;9.20;99.90
25949;DHT22;13961;51.178;4.448;2023-04-06T01:07:37;9.20;99.90
25949;DHT22;13961;51.178;4.448;2023-04-06T01:10:03;9.20;99.90
25949;DHT22;13961;51.178;4.448;2023-04-06T01:12:29;9.20;99.90
25949;DHT22;13961;51.178;4.448;2023-04-06T01:14:55;9.10;99.90
25949;DHT22;13961;51.178;4.448;2023-04-06T01:17:21;9.10;99.90
25949;DHT22;13961;51.178;4.448;2023-04-06T01:19:46;9.10;99.90
25949;DHT22;13961;51.178;4.448;2023-04-06T01:22:18;9.00;99.90
25949;DHT22;13961;51.178;4.448;2023-04-06T01:24:44;9.00;99.90
25949;DHT22;13961;51.178;4.448;2023-04-06T01:27:10;9.00;99.90
25949;DHT22;13961;51.178;4.448;2023-04-06T01:29:35;9.00;99.90
25949;DHT22;13961;51.178;4.448;2023-04-06T01:32:01;9.00;99.90
25949;DHT22;13961;51.178;4.448;2023-04-06T01:34:27;8.90;99.90
25949;DHT22;13961;51.178;4.448;2023-04-06T01:36:53;8.90;99.90
25949;DHT22;13961;51.178;4.448;2023-04-06T01:39:19;8.80;99.90
25949;DHT22;13961;51.178;4.448;2023-04-06T01:41:45;8.80;99.90
25949;DHT22;13961;51.178;4.448;2023-04-06T01:44:16;8.70;99.90
25949;DHT22;13961;51.178;4.448;2023-04-06T01:46:42;8.80;99.90
25949;DHT22;13961;51.178;4.448;2023-04-06T01:49:08;8.90;99.90
25949;DHT22;13961;51.178;4.448;2023-04-06T01:51:33;8.90;99.90
25949;DHT22;13961;51.178;4.448;2023-04-06T01:53:59;8.70;99.90
25949;DHT22;13961;51.178;4.448;2023-04-06T01:56:25;8.70;99.90
25949;DHT22;13961;51.178;4.448;2023-04-06T01:58:50;8.70;99.90
25949;DHT22;13961;51.178;4.448;2023-04-06T02:01:16;8.80;99.90
25949;DHT22;13961;51.178;4.448;2023-04-06T02:03:42;8.90;99.90
25949;DHT22;13961;51.178;4.448;2023-04-06T02:06:07;8.90;99.90
25949;DHT22;13961;51.178;4.448;2023-04-06T02:08:33;9.00;99.90
25949;DHT22;13961;51.178;4.448;2023-04-06T02:10:59;8.80;99.90
25949;DHT22;13961;51.178;4.448;2023-04-06T02:13:24;8.90;99.90
25949;DHT22;13961;51.178;4.448;2023-04-06T02:15:50;8.80;99.90
25949;DHT22;13961;51.178;4.448;2023-04-06T02:18:16;8.90;99.90
25949;DHT22;13961;51.178;4.448;2023-04-06T02:20:43;9.00;99.90
25949;DHT22;13961;51.178;4.448;2023-04-06T02:23:10;8.90;99.90
25949;DHT22;13961;51.178;4.448;2023-04-06T02:25:35;8.80;99.90
25949;DHT22;13961;51.178;4.448;2023-04-06T02:28:01;8.80;99.90
25949;DHT22;13961;51.178;4.448;2023-04-06T02:30:27;8.60;99.90
25949;DHT22;13961;51.178;4.448;2023-04-06T02:32:54;8.80;99.90
25949;DHT22;13961;51.178;4.448;2023-04-06T02:35:21;8.80;99.90
25949;DHT22;13961;51.178;4.448;2023-04-06T02:37:46;8.70;99.90
25949;DHT22;13961;51.178;4.448;2023-04-06T02:40:13;8.90;99.90
25949;DHT22;13961;51.178;4.448;2023-04-06T02:42:39;8.70;99.90
25949;DHT22;13961;51.178;4.448;2023-04-06T02:45:05;8.70;99.90
25949;DHT22;13961;51.178;4.448;2023-04-06T02:47:31;8.70;99.90
25949;DHT22;13961;51.178;4.448;2023-04-06T02:49:57;8.60;99.90
25949;DHT22;13961;51.178;4.448;2023-04-06T02:52:22;8.50;99.90
25949;DHT22;13961;51.178;4.448;2023-04-06T02:54:48;8.50;99.90
25949;DHT22;13961;51.178;4.448;2023-04-06T02:57:14;8.60;99.90
25949;DHT22;13961;51.178;4.448;2023-04-06T02:59:39;8.60;99.90
25949;DHT22;13961;51.178;4.448;2023-04-06T03:02:05;8.60;99.90
25949;DHT22;13961;51.178;4.448;2023-04-06T03:04:31;8.60;99.90
25949;DHT22;13961;51.178;4.448;2023-04-06T03:06:56;8.60;99.90
25949;DHT22;13961;51.178;4.448;2023-04-06T03:09:22;8.50;99.90
25949;DHT22;13961;51.178;4.448;2023-04-06T03:11:48;8.50;99.90
25949;DHT22;13961;51.178;4.448;2023-04-06T03:14:13;8.60;99.90
25949;DHT22;13961;51.178;4.448;2023-04-06T03:16:39;8.70;99.90
25949;DHT22;13961;51.178;4.448;2023-04-06T03:19:04;8.70;99.90
25949;DHT22;13961;51.178;4.448;2023-04-06T03:21:30;8.70;99.90
25949;DHT22;13961;51.178;4.448;2023-04-06T03:23:56;8.70;99.90
25949;DHT22;13961;51.178;4.448;2023-04-06T03:26:23;8.60;99.90
25949;DHT22;13961;51.178;4.448;2023-04-06T03:28:48;8.50;99.90
25949;DHT22;13961;51.178;4.448;2023-04-06T03:31:14;8.50;99.90
25949;DHT22;13961;51.178;4.448;2023-04-06T03:33:40;8.50;99.90
25949;DHT22;13961;51.178;4.448;2023-04-06T03:36:06;8.50;99.90
25949;DHT22;13961;51.178;4.448;2023-04-06T03:38:32;8.60;99.90
25949;DHT22;13961;51.178;4.448;2023-04-06T03:40:58;8.50;99.90
25949;DHT22;13961;51.178;4.448;2023-04-06T03:43:23;8.40;99.90
25949;DHT22;13961;51.178;4.448;2023-04-06T03:45:49;8.50;99.90
25949;DHT22;13961;51.178;4.448;2023-04-06T03:48:15;8.60;99.90
25949;DHT22;13961;51.178;4.448;2023-04-06T03:50:40;8.50;99.90
25949;DHT22;13961;51.178;4.448;2023-04-06T03:53:06;8.60;99.90
25949;DHT22;13961;51.178;4.448;2023-04-06T03:55:32;8.60;99.90
25949;DHT22;13961;51.178;4.448;2023-04-06T03:57:57;8.50;99.90
25949;DHT22;13961;51.178;4.448;2023-04-06T04:00:23;8.50;99.90
25949;DHT22;13961;51.178;4.448;2023-04-06T04:02:49;8.50;99.90
25949;DHT22;13961;51.178;4.448;2023-04-06T04:05:15;8.50;99.90
25949;DHT22;13961;51.178;4.448;2023-04-06T04:07:40;8.40;99.90
25949;DHT22;13961;51.178;4.448;2023-04-06T04:10:07;8.40;99.90
25949;DHT22;13961;51.178;4.448;2023-04-06T04:12:33;8.40;99.90
25949;DHT22;13961;51.178;4.448;2023-04-06T04:14:59;8.60;99.90
25949;DHT22;13961;51.178;4.448;2023-04-06T04:17:25;8.60;99.90
25949;DHT22;13961;51.178;4.448;2023-04-06T04:19:50;8.70;99.90
25949;DHT22;13961;51.178;4.448;2023-04-06T04:22:17;8.70;99.90
25949;DHT22;13961;51.178;4.448;2023-04-06T04:24:43;8.70;99.90
25949;DHT22;13961;51.178;4.448;2023-04-06T04:27:08;8.60;99.90
25949;DHT22;13961;51.178;4.448;2023-04-06T04:29:34;8.60;99.90
25949;DHT22;13961;51.178;4.448;2023-04-06T04:32:00;8.60;99.90
25949;DHT22;13961;51.178;4.448;2023-04-06T04:34:26;8.50;99.90
25949;DHT22;13961;51.178;4.448;2023-04-06T04:36:52;8.60;99.90
25949;DHT22;13961;51.178;4.448;2023-04-06T04:39:18;8.50;99.90
25949;DHT22;13961;51.178;4.448;2023-04-06T04:41:44;8.60;99.90
25949;DHT22;13961;51.178;4.448;2023-04-06T04:44:09;8.60;99.90
25949;DHT22;13961;51.178;4.448;2023-04-06T04:46:35;8.70;99.90
25949;DHT22;13961;51.178;4.448;2023-04-06T04:49:01;8.80;99.90
25949;DHT22;13961;51.178;4.448;2023-04-06T04:51:26;8.80;99.90
25949;DHT22;13961;51.178;4.448;2023-04-06T04:53:52;8.90;99.90
25949;DHT22;13961;51.178;4.448;2023-04-06T04:56:18;9.00;99.90
25949;DHT22;13961;51.178;4.448;2023-04-06T04:58:43;8.90;99.90
25949;DHT22;13961;51.178;4.448;2023-04-06T05:01:09;9.00;99.90
25949;DHT22;13961;51.178;4.448;2023-04-06T05:03:36;8.70;99.90
25949;DHT22;13961;51.178;4.448;2023-04-06T05:06:04;8.80;99.90
25949;DHT22;13961;51.178;4.448;2023-04-06T05:08:30;8.80;99.90
25949;DHT22;13961;51.178;4.448;2023-04-06T05:10:56;8.80;99.90
25949;DHT22;13961;51.178;4.448;2023-04-06T05:13:22;8.90;99.90
25949;DHT22;13961;51.178;4.448;2023-04-06T05:15:47;9.00;99.90
25949;DHT22;13961;51.178;4.448;2023-04-06T05:18:13;9.00;99.90
25949;DHT22;13961;51.178;4.448;2023-04-06T05:20:39;9.10;99.90
25949;DHT22;13961;51.178;4.448;2023-04-06T05:23:05;9.20;99.90
25949;DHT22;13961;51.178;4.448;2023-04-06T05:25:31;9.20;99.90
25949;DHT22;13961;51.178;4.448;2023-04-06T05:27:59;9.30;99.90
25949;DHT22;13961;51.178;4.448;2023-04-06T05:30:25;9.30;99.90
25949;DHT22;13961;51.178;4.448;2023-04-06T05:32:51;9.20;99.90
25949;DHT22;13961;51.178;4.448;2023-04-06T05:35:17;9.20;99.90
25949;DHT22;13961;51.178;4.448;2023-04-06T05:37:43;9.20;99.90
25949;DHT22;13961;51.178;4.448;2023-04-06T05:40:09;9.20;99.90
25949;DHT22;13961;51.178;4.448;2023-04-06T05:42:42;9.10;99.90
25949;DHT22;13961;51.178;4.448;2023-04-06T05:45:09;9.20;99.90
25949;DHT22;13961;51.178;4.448;2023-04-06T05:47:36;9.20;99.90
25949;DHT22;13961;51.178;4.448;2023-04-06T05:50:02;9.30;99.90
25949;DHT22;13961;51.178;4.448;2023-04-06T05:52:28;9.20;99.90
25949;DHT22;13961;51.178;4.448;2023-04-06T05:54:54;9.20;99.90
25949;DHT22;13961;51.178;4.448;2023-04-06T05:57:19;9.20;99.90
25949;DHT22;13961;51.178;4.448;2023-04-06T05:59:45;9.40;99.90
25949;DHT22;13961;51.178;4.448;2023-04-06T06:02:11;9.30;99.90
25949;DHT22;13961;51.178;4.448;2023-04-06T06:04:36;9.40;99.90
25949;DHT22;13961;51.178;4.448;2023-04-06T06:07:02;9.40;99.90
25949;DHT22;13961;51.178;4.448;2023-04-06T06:09:28;9.50;99.90
25949;DHT22;13961;51.178;4.448;2023-04-06T06:11:55;9.60;99.90
25949;DHT22;13961;51.178;4.448;2023-04-06T06:14:20;9.60;99.90
25949;DHT22;13961;51.178;4.448;2023-04-06T06:16:47;9.80;99.90
25949;DHT22;13961;51.178;4.448;2023-04-06T06:19:12;9.80;99.90
25949;DHT22;13961;51.178;4.448;2023-04-06T06:21:38;9.80;99.90
25949;DHT22;13961;51.178;4.448;2023-04-06T06:24:04;9.80;99.90
25949;DHT22;13961;51.178;4.448;2023-04-06T06:26:30;9.90;99.90
25949;DHT22;13961;51.178;4.448;2023-04-06T06:28:56;10.00;99.90
25949;DHT22;13961;51.178;4.448;2023-04-06T06:31:22;9.90;99.90
25949;DHT22;13961;51.178;4.448;2023-04-06T06:33:51;9.90;99.90
25949;DHT22;13961;51.178;4.448;2023-04-06T06:36:17;9.80;99.90
25949;DHT22;13961;51.178;4.448;2023-04-06T06:38:43;9.70;99.90
25949;DHT22;13961;51.178;4.448;2023-04-06T06:41:09;9.80;99.90
25949;DHT22;13961;51.178;4.448;2023-04-06T06:43:35;9.80;99.90
25949;DHT22;13961;51.178;4.448;2023-04-06T06:46:01;9.80;99.90
25949;DHT22;13961;51.178;4.448;2023-04-06T06:48:27;9.60;99.90
25949;DHT22;13961;51.178;4.448;2023-04-06T06:50:55;9.70;99.90
25949;DHT22;13961;51.178;4.448;2023-04-06T06:53:21;9.70;99.90
25949;DHT22;13961;51.178;4.448;2023-04-06T06:55:47;9.70;99.90
25949;DHT22;13961;51.178;4.448;2023-04-06T06:58:14;9.80;99.90
25949;DHT22;13961;51.178;4.448;2023-04-06T07:00:40;9.80;99.90
25949;DHT22;13961;51.178;4.448;2023-04-06T07:03:06;9.90;99.90
25949;DHT22;13961;51.178;4.448;2023-04-06T07:05:32;9.90;99.90
25949;DHT22;13961;51.178;4.448;2023-04-06T07:07:57;9.90;99.90
25949;DHT22;13961;51.178;4.448;2023-04-06T07:10:23;9.90;99.90
25949;DHT22;13961;51.178;4.448;2023-04-06T07:12:49;9.90;99.90
25949;DHT22;13961;51.178;4.448;2023-04-06T07:15:16;9.90;99.90
25949;DHT22;13961;51.178;4.448;2023-04-06T07:17:42;9.80;99.90
25949;DHT22;13961;51.178;4.448;2023-04-06T07:20:11;9.80;99.90
25949;DHT22;13961;51.178;4.448;2023-04-06T07:22:38;9.80;99.90
25949;DHT22;13961;51.178;4.448;2023-04-06T07:25:05;9.70;99.90
25949;DHT22;13961;51.178;4.448;2023-04-06T07:27:31;9.70;99.90
25949;DHT22;13961;51.178;4.448;2023-04-06T07:29:56;9.70;99.90
25949;DHT22;13961;51.178;4.448;2023-04-06T07:32:22;9.70;99.90
25949;DHT22;13961;51.178;4.448;2023-04-06T07:34:48;9.80;99.90
25949;DHT22;13961;51.178;4.448;2023-04-06T07:37:14;9.80;99.90
25949;DHT22;13961;51.178;4.448;2023-04-06T07:39:40;9.80;99.90
25949;DHT22;13961;51.178;4.448;2023-04-06T07:42:06;9.90;99.90
25949;DHT22;13961;51.178;4.448;2023-04-06T07:44:32;10.00;99.90
25949;DHT22;13961;51.178;4.448;2023-04-06T07:46:57;10.00;99.90
25949;DHT22;13961;51.178;4.448;2023-04-06T07:49:23;10.00;99.90
25949;DHT22;13961;51.178;4.448;2023-04-06T07:51:49;9.90;99.90
25949;DHT22;13961;51.178;4.448;2023-04-06T07:54:15;10.00;99.90
25949;DHT22;13961;51.178;4.448;2023-04-06T07:56:40;9.90;99.90
25949;DHT22;13961;51.178;4.448;2023-04-06T07:59:06;9.60;99.90
25949;DHT22;13961;51.178;4.448;2023-04-06T08:01:32;9.50;99.90
25949;DHT22;13961;51.178;4.448;2023-04-06T08:03:57;9.60;99.90
25949;DHT22;13961;51.178;4.448;2023-04-06T08:06:23;9.80;99.90
25949;DHT22;13961;51.178;4.448;2023-04-06T08:08:49;9.80;99.90
25949;DHT22;13961;51.178;4.448;2023-04-06T08:11:15;9.90;99.90
25949;DHT22;13961;51.178;4.448;2023-04-06T08:13:41;9.50;99.90
25949;DHT22;13961;51.178;4.448;2023-04-06T08:16:06;9.50;99.90
25949;DHT22;13961;51.178;4.448;2023-04-06T08:18:32;9.40;99.90
25949;DHT22;13961;51.178;4.448;2023-04-06T08:20:58;9.50;99.90
25949;DHT22;13961;51.178;4.448;2023-04-06T08:23:23;9.40;99.90
25949;DHT22;13961;51.178;4.448;2023-04-06T08:25:49;9.20;99.90
25949;DHT22;13961;51.178;4.448;2023-04-06T08:28:15;9.20;99.90
25949;DHT22;13961;51.178;4.448;2023-04-06T08:30:42;9.30;99.90
25949;DHT22;13961;51.178;4.448;2023-04-06T08:33:08;9.30;99.90
25949;DHT22;13961;51.178;4.448;2023-04-06T08:35:34;9.40;99.90
25949;DHT22;13961;51.178;4.448;2023-04-06T08:37:59;9.40;99.90
25949;DHT22;13961;51.178;4.448;2023-04-06T08:40:25;9.40;99.90
25949;DHT22;13961;51.178;4.448;2023-04-06T08:42:56;9.80;99.90
25949;DHT22;13961;51.178;4.448;2023-04-06T08:45:22;9.60;99.90
25949;DHT22;13961;51.178;4.448;2023-04-06T08:47:50;9.70;99.90
25949;DHT22;13961;51.178;4.448;2023-04-06T08:50:17;9.80;99.90
25949;DHT22;13961;51.178;4.448;2023-04-06T08:52:44;9.70;99.90
25949;DHT22;13961;51.178;4.448;2023-04-06T08:55:11;9.70;99.90
25949;DHT22;13961;51.178;4.448;2023-04-06T08:57:38;9.60;99.90
25949;DHT22;13961;51.178;4.448;2023-04-06T09:00:06;9.50;99.90
25949;DHT22;13961;51.178;4.448;2023-04-06T09:02:39;9.50;99.90
25949;DHT22;13961;51.178;4.448;2023-04-06T09:05:07;9.40;99.90
25949;DHT22;13961;51.178;4.448;2023-04-06T09:08:00;9.40;99.90
25949;DHT22;13961;51.178;4.448;2023-04-06T09:10:26;9.50;99.90
25949;DHT22;13961;51.178;4.448;2023-04-06T09:13:04;9.70;99.90
25949;DHT22;13961;51.178;4.448;2023-04-06T09:15:30;9.70;99.90
25949;DHT22;13961;51.178;4.448;2023-04-06T09:17:55;9.70;99.90
25949;DHT22;13961;51.178;4.448;2023-04-06T09:20:25;9.70;99.90
25949;DHT22;13961;51.178;4.448;2023-04-06T09:22:53;9.80;99.90
25949;DHT22;13961;51.178;4.448;2023-04-06T09:25:20;9.80;99.90
25949;DHT22;13961;51.178;4.448;2023-04-06T09:27:46;9.80;99.90
25949;DHT22;13961;51.178;4.448;2023-04-06T09:30:13;9.70;99.90
25949;DHT22;13961;51.178;4.448;2023-04-06T09:32:48;9.40;99.90
25949;DHT22;13961;51.178;4.448;2023-04-06T09:35:15;9.50;99.90
25949;DHT22;13961;51.178;4.448;2023-04-06T09:37:42;9.40;99.90
25949;DHT22;13961;51.178;4.448;2023-04-06T09:40:09;9.50;99.90
25949;DHT22;13961;51.178;4.448;2023-04-06T09:42:35;9.40;99.90
25949;DHT22;13961;51.178;4.448;2023-04-06T09:45:02;9.40;99.90
25949;DHT22;13961;51.178;4.448;2023-04-06T09:47:29;9.30;99.90
25949;DHT22;13961;51.178;4.448;2023-04-06T09:49:57;9.30;99.90
25949;DHT22;13961;51.178;4.448;2023-04-06T09:52:50;9.60;99.90
25949;DHT22;13961;51.178;4.448;2023-04-06T09:55:22;9.80;99.90
25949;DHT22;13961;51.178;4.448;2023-04-06T09:58:06;9.70;99.90
25949;DHT22;13961;51.178;4.448;2023-04-06T10:00:44;9.60;99.90
25949;DHT22;13961;51.178;4.448;2023-04-06T10:03:21;9.90;99.90
25949;DHT22;13961;51.178;4.448;2023-04-06T10:05:54;10.00;99.90
25949;DHT22;13961;51.178;4.448;2023-04-06T10:08:23;10.10;99.90
25949;DHT22;13961;51.178;4.448;2023-04-06T10:10:52;10.00;99.90
25949;DHT22;13961;51.178;4.448;2023-04-06T10:13:18;9.70;99.90
25949;DHT22;13961;51.178;4.448;2023-04-06T10:15:45;9.50;99.90
25949;DHT22;13961;51.178;4.448;2023-04-06T10:18:11;9.60;99.90
25949;DHT22;13961;51.178;4.448;2023-04-06T10:21:00;9.60;99.90
25949;DHT22;13961;51.178;4.448;2023-04-06T10:25:55;9.50;99.90
25949;DHT22;13961;51.178;4.448;2023-04-06T10:28:20;9.60;99.90
25949;DHT22;13961;51.178;4.448;2023-04-06T10:30:46;9.70;99.90
25949;DHT22;13961;51.178;4.448;2023-04-06T10:33:20;9.40;99.90
25949;DHT22;13961;51.178;4.448;2023-04-06T10:35:46;9.30;99.90
25949;DHT22;13961;51.178;4.448;2023-04-06T10:38:12;9.50;99.90
25949;DHT22;13961;51.178;4.448;2023-04-06T10:40:40;9.50;99.90
25949;DHT22;13961;51.178;4.448;2023-04-06T10:45:35;9.60;99.90
25949;DHT22;13961;51.178;4.448;2023-04-06T10:48:15;9.50;99.90
25949;DHT22;13961;51.178;4.448;2023-04-06T10:50:47;9.60;99.90
25949;DHT22;13961;51.178;4.448;2023-04-06T10:53:24;9.50;99.90
25949;DHT22;13961;51.178;4.448;2023-04-06T10:55:51;9.60;99.90
25949;DHT22;13961;51.178;4.448;2023-04-06T10:58:17;9.60;99.90
25949;DHT22;13961;51.178;4.448;2023-04-06T11:00:47;9.50;99.90
25949;DHT22;13961;51.178;4.448;2023-04-06T11:03:13;9.50;99.90
25949;DHT22;13961;51.178;4.448;2023-04-06T11:05:44;9.50;99.90
25949;DHT22;13961;51.178;4.448;2023-04-06T11:08:10;9.50;99.90
25949;DHT22;13961;51.178;4.448;2023-04-06T11:10:36;9.40;99.90
25949;DHT22;13961;51.178;4.448;2023-04-06T11:13:01;9.30;99.90
25949;DHT22;13961;51.178;4.448;2023-04-06T11:15:34;9.20;99.90
25949;DHT22;13961;51.178;4.448;2023-04-06T11:18:03;9.10;99.90
25949;DHT22;13961;51.178;4.448;2023-04-06T11:20:30;9.10;99.90
25949;DHT22;13961;51.178;4.448;2023-04-06T11:22:55;9.20;99.90
25949;DHT22;13961;51.178;4.448;2023-04-06T11:25:21;9.40;99.90
25949;DHT22;13961;51.178;4.448;2023-04-06T11:27:47;9.20;99.90
25949;DHT22;13961;51.178;4.448;2023-04-06T11:30:14;9.20;99.90
25949;DHT22;13961;51.178;4.448;2023-04-06T11:32:44;9.30;99.90
25949;DHT22;13961;51.178;4.448;2023-04-06T11:35:20;9.40;99.90
25949;DHT22;13961;51.178;4.448;2023-04-06T11:37:51;9.30;99.90
25949;DHT22;13961;51.178;4.448;2023-04-06T11:40:23;9.40;99.90
25949;DHT22;13961;51.178;4.448;2023-04-06T11:42:54;9.40;99.90
25949;DHT22;13961;51.178;4.448;2023-04-06T11:45:20;9.60;99.90
25949;DHT22;13961;51.178;4.448;2023-04-06T11:47:59;9.50;99.90
25949;DHT22;13961;51.178;4.448;2023-04-06T11:50:31;9.60;99.90
25949;DHT22;13961;51.178;4.448;2023-04-06T11:53:01;9.50;99.90
25949;DHT22;13961;51.178;4.448;2023-04-06T11:55:28;9.50;99.90
25949;DHT22;13961;51.178;4.448;2023-04-06T11:57:54;9.60;99.90
25949;DHT22;13961;51.178;4.448;2023-04-06T12:00:20;9.60;99.90
25949;DHT22;13961;51.178;4.448;2023-04-06T12:02:48;9.60;99.90
25949;DHT22;13961;51.178;4.448;2023-04-06T12:05:14;9.60;99.90
25949;DHT22;13961;51.178;4.448;2023-04-06T12:07:40;9.50;99.90
25949;DHT22;13961;51.178;4.448;2023-04-06T12:10:06;9.80;99.90
25949;DHT22;13961;51.178;4.448;2023-04-06T12:12:32;9.80;99.90
25949;DHT22;13961;51.178;4.448;2023-04-06T12:14:58;9.80;99.90
25949;DHT22;13961;51.178;4.448;2023-04-06T12:17:24;9.80;99.90
25949;DHT22;13961;51.178;4.448;2023-04-06T12:19:50;10.00;99.90
25949;DHT22;13961;51.178;4.448;2023-04-06T12:22:17;10.10;99.90
25949;DHT22;13961;51.178;4.448;2023-04-06T12:24:42;10.10;99.90
25949;DHT22;13961;51.178;4.448;2023-04-06T12:27:09;10.20;99.90
25949;DHT22;13961;51.178;4.448;2023-04-06T12:29:37;10.10;99.90
25949;DHT22;13961;51.178;4.448;2023-04-06T12:32:03;10.10;99.90
25949;DHT22;13961;51.178;4.448;2023-04-06T12:34:29;10.20;99.90
25949;DHT22;13961;51.178;4.448;2023-04-06T12:36:55;10.20;99.90
25949;DHT22;13961;51.178;4.448;2023-04-06T12:39:21;10.10;99.90
25949;DHT22;13961;51.178;4.448;2023-04-06T12:41:50;10.00;99.90
25949;DHT22;13961;51.178;4.448;2023-04-06T12:44:16;9.90;99.90
25949;DHT22;13961;51.178;4.448;2023-04-06T12:46:41;9.90;99.90
25949;DHT22;13961;51.178;4.448;2023-04-06T12:49:08;10.00;99.90
25949;DHT22;13961;51.178;4.448;2023-04-06T12:51:34;10.00;99.90
25949;DHT22;13961;51.178;4.448;2023-04-06T12:53:59;10.00;99.90
25949;DHT22;13961;51.178;4.448;2023-04-06T12:56:26;9.90;99.90
25949;DHT22;13961;51.178;4.448;2023-04-06T12:58:55;9.90;99.90
25949;DHT22;13961;51.178;4.448;2023-04-06T13:01:21;9.70;99.90
25949;DHT22;13961;51.178;4.448;2023-04-06T13:03:47;9.70;99.90
25949;DHT22;13961;51.178;4.448;2023-04-06T13:06:15;9.70;99.90
25949;DHT22;13961;51.178;4.448;2023-04-06T13:08:41;9.80;99.90
25949;DHT22;13961;51.178;4.448;2023-04-06T13:11:07;9.90;99.90
25949;DHT22;13961;51.178;4.448;2023-04-06T13:13:36;10.00;99.90
25949;DHT22;13961;51.178;4.448;2023-04-06T13:16:07;10.10;99.90
25949;DHT22;13961;51.178;4.448;2023-04-06T13:18:34;10.00;99.90
25949;DHT22;13961;51.178;4.448;2023-04-06T13:21:00;10.00;99.90
25949;DHT22;13961;51.178;4.448;2023-04-06T13:23:26;10.00;99.90
25949;DHT22;13961;51.178;4.448;2023-04-06T13:26:05;10.10;99.90
25949;DHT22;13961;51.178;4.448;2023-04-06T13:28:33;10.00;99.90
25949;DHT22;13961;51.178;4.448;2023-04-06T13:30:59;9.90;99.90
25949;DHT22;13961;51.178;4.448;2023-04-06T13:33:29;9.90;99.90
25949;DHT22;13961;51.178;4.448;2023-04-06T13:35:55;10.10;99.90
25949;DHT22;13961;51.178;4.448;2023-04-06T13:38:21;10.10;99.90
25949;DHT22;13961;51.178;4.448;2023-04-06T13:40:49;10.00;99.90
25949;DHT22;13961;51.178;4.448;2023-04-06T13:43:15;10.10;99.90
25949;DHT22;13961;51.178;4.448;2023-04-06T13:45:48;10.00;99.90
25949;DHT22;13961;51.178;4.448;2023-04-06T13:48:13;10.00;99.90
25949;DHT22;13961;51.178;4.448;2023-04-06T13:50:39;10.10;99.90
25949;DHT22;13961;51.178;4.448;2023-04-06T13:53:05;10.00;99.90
25949;DHT22;13961;51.178;4.448;2023-04-06T13:55:31;10.00;99.90
25949;DHT22;13961;51.178;4.448;2023-04-06T13:57:56;10.10;99.90
25949;DHT22;13961;51.178;4.448;2023-04-06T14:00:22;10.20;99.90
25949;DHT22;13961;51.178;4.448;2023-04-06T14:02:49;10.30;99.90
25949;DHT22;13961;51.178;4.448;2023-04-06T14:05:15;10.30;99.90
25949;DHT22;13961;51.178;4.448;2023-04-06T14:07:40;10.40;99.90
25949;DHT22;13961;51.178;4.448;2023-04-06T14:10:07;10.20;99.90
25949;DHT22;13961;51.178;4.448;2023-04-06T14:12:40;10.20;99.90
25949;DHT22;13961;51.178;4.448;2023-04-06T14:15:08;10.30;99.90
25949;DHT22;13961;51.178;4.448;2023-04-06T14:17:33;10.20;99.90
25949;DHT22;13961;51.178;4.448;2023-04-06T14:19:59;10.30;99.90
25949;DHT22;13961;51.178;4.448;2023-04-06T14:22:25;10.10;99.90
25949;DHT22;13961;51.178;4.448;2023-04-06T14:24:51;10.10;99.90
25949;DHT22;13961;51.178;4.448;2023-04-06T14:27:17;9.80;99.90
25949;DHT22;13961;51.178;4.448;2023-04-06T14:29:42;10.10;99.90
25949;DHT22;13961;51.178;4.448;2023-04-06T14:32:08;10.20;99.90
25949;DHT22;13961;51.178;4.448;2023-04-06T14:34:37;10.30;99.90
25949;DHT22;13961;51.178;4.448;2023-04-06T14:37:02;10.20;99.90
25949;DHT22;13961;51.178;4.448;2023-04-06T14:39:28;10.10;99.90
25949;DHT22;13961;51.178;4.448;2023-04-06T14:41:54;10.00;99.90
25949;DHT22;13961;51.178;4.448;2023-04-06T14:44:20;10.40;99.90
25949;DHT22;13961;51.178;4.448;2023-04-06T14:46:46;10.30;99.90
25949;DHT22;13961;51.178;4.448;2023-04-06T14:49:12;10.40;99.90
25949;DHT22;13961;51.178;4.448;2023-04-06T14:51:37;10.40;99.90
25949;DHT22;13961;51.178;4.448;2023-04-06T14:54:03;10.50;99.90
25949;DHT22;13961;51.178;4.448;2023-04-06T14:56:29;10.60;99.90
25949;DHT22;13961;51.178;4.448;2023-04-06T14:58:58;10.60;99.90
25949;DHT22;13961;51.178;4.448;2023-04-06T15:01:24;10.70;99.90
25949;DHT22;13961;51.178;4.448;2023-04-06T15:03:50;10.70;99.90
25949;DHT22;13961;51.178;4.448;2023-04-06T15:06:18;10.90;99.90
25949;DHT22;13961;51.178;4.448;2023-04-06T15:08:46;10.90;99.90
25949;DHT22;13961;51.178;4.448;2023-04-06T15:11:12;10.80;99.90
25949;DHT22;13961;51.178;4.448;2023-04-06T15:13:39;10.50;99.90
25949;DHT22;13961;51.178;4.448;2023-04-06T15:16:05;10.60;99.90
25949;DHT22;13961;51.178;4.448;2023-04-06T15:18:32;10.60;99.90
25949;DHT22;13961;51.178;4.448;2023-04-06T15:20:58;10.60;99.90
25949;DHT22;13961;51.178;4.448;2023-04-06T15:23:24;10.60;99.90
25949;DHT22;13961;51.178;4.448;2023-04-06T15:25:50;10.70;99.90
25949;DHT22;13961;51.178;4.448;2023-04-06T15:28:16;10.80;99.90
25949;DHT22;13961;51.178;4.448;2023-04-06T15:30:42;10.70;99.90
25949;DHT22;13961;51.178;4.448;2023-04-06T15:33:08;10.90;99.90
25949;DHT22;13961;51.178;4.448;2023-04-06T15:35:34;10.80;99.90
25949;DHT22;13961;51.178;4.448;2023-04-06T15:38:04;10.90;99.90
25949;DHT22;13961;51.178;4.448;2023-04-06T15:40:30;10.90;99.90
25949;DHT22;13961;51.178;4.448;2023-04-06T15:42:56;10.90;99.90
25949;DHT22;13961;51.178;4.448;2023-04-06T15:45:22;11.20;99.90